sensor_id;sensor_type;location;lat;lon;timestamp;temperature;humidity
19330;DHT22;9799;48.214;16.388;2023-04-21T00:00:51;12.10;99.90
19330;DHT22;9799;48.214;16.388;2023-04-21T00:04:12;12.10;99.90
19330;DHT22;9799;48.214;16.388;2023-04-21T00:07:35;12.10;99.90
19330;DHT22;9799;48.214;16.388;2023-04-21T00:10:58;12.20;99.90
19330;DHT22;9799;48.214;16.388;2023-04-21T00:14:19;12.20;99.90
19330;DHT22;9799;48.214;16.388;2023-04-21T00:17:40;12.20;99.90
19330;DHT22;9799;48.214;16.388;2023-04-21T00:21:01;12.10;99.90
19330;DHT22;9799;48.214;16.388;2023-04-21T00:24:24;12.00;99.90
19330;DHT22;9799;48.214;16.388;2023-04-21T00:27:45;12.10;99.90
19330;DHT22;9799;48.214;16.388;2023-04-21T00:31:06;12.10;99.90
19330;DHT22;9799;48.214;16.388;2023-04-21T00:34:28;12.20;99.90
19330;DHT22;9799;48.214;16.388;2023-04-21T00:37:49;12.10;99.90
19330;DHT22;9799;48.214;16.388;2023-04-21T00:41:12;12.00;99.90
19330;DHT22;9799;48.214;16.388;2023-04-21T00:44:33;12.00;99.90
19330;DHT22;9799;48.214;16.388;2023-04-21T00:47:54;11.80;99.90
19330;DHT22;9799;48.214;16.388;2023-04-21T00:51:15;11.80;99.90
19330;DHT22;9799;48.214;16.388;2023-04-21T00:54:37;11.90;99.90
19330;DHT22;9799;48.214;16.388;2023-04-21T00:58:00;11.90;99.90
19330;DHT22;9799;48.214;16.388;2023-04-21T01:01:22;11.80;99.90
19330;DHT22;9799;48.214;16.388;2023-04-21T01:04:43;11.80;99.90
19330;DHT22;9799;48.214;16.388;2023-04-21T01:08:05;11.70;99.90
19330;DHT22;9799;48.214;16.388;2023-04-21T01:11:27;11.50;99.90
19330;DHT22;9799;48.214;16.388;2023-04-21T01:14:49;11.50;99.90
19330;DHT22;9799;48.214;16.388;2023-04-21T01:18:10;11.50;99.90
19330;DHT22;9799;48.214;16.388;2023-04-21T01:21:38;11.40;99.90
19330;DHT22;9799;48.214;16.388;2023-04-21T01:25:00;11.30;99.90
19330;DHT22;9799;48.214;16.388;2023-04-21T01:28:22;11.40;99.90
19330;DHT22;9799;48.214;16.388;2023-04-21T01:31:43;11.40;99.90
19330;DHT22;9799;48.214;16.388;2023-04-21T01:35:07;11.30;99.90
19330;DHT22;9799;48.214;16.388;2023-04-21T01:38:29;11.40;99.90
19330;DHT22;9799;48.214;16.388;2023-04-21T01:41:51;11.20;99.90
19330;DHT22;9799;48.214;16.388;2023-04-21T01:45:14;11.10;99.90
19330;DHT22;9799;48.214;16.388;2023-04-21T01:48:36;11.00;99.90
19330;DHT22;9799;48.214;16.388;2023-04-21T01:51:57;10.90;99.90
19330;DHT22;9799;48.214;16.388;2023-04-21T01:55:20;11.00;99.90
19330;DHT22;9799;48.214;16.388;2023-04-21T01:58:41;11.20;99.90
19330;DHT22;9799;48.214;16.388;2023-04-21T02:02:02;11.30;99.90
19330;DHT22;9799;48.214;16.388;2023-04-21T02:05:23;11.20;99.90
19330;DHT22;9799;48.214;16.388;2023-04-21T02:08:45;11.00;99.90
19330;DHT22;9799;48.214;16.388;2023-04-21T02:12:07;11.00;99.90
19330;DHT22;9799;48.214;16.388;2023-04-21T02:15:29;10.90;99.90
19330;DHT22;9799;48.214;16.388;2023-04-21T02:18:50;10.80;99.90
19330;DHT22;9799;48.214;16.388;2023-04-21T02:22:12;10.90;99.90
19330;DHT22;9799;48.214;16.388;2023-04-21T02:25:33;10.90;99.90
19330;DHT22;9799;48.214;16.388;2023-04-21T02:28:56;10.90;99.90
19330;DHT22;9799;48.214;16.388;2023-04-21T02:32:17;10.90;99.90
19330;DHT22;9799;48.214;16.388;2023-04-21T02:35:38;10.90;99.90
19330;DHT22;9799;48.214;16.388;2023-04-21T02:38:59;10.90;99.90
19330;DHT22;9799;48.214;16.388;2023-04-21T02:42:21;11.00;99.90
19330;DHT22;9799;48.214;16.388;2023-04-21T02:45:44;11.10;99.90
19330;DHT22;9799;48.214;16.388;2023-04-21T02:49:05;11.20;99.90
19330;DHT22;9799;48.214;16.388;2023-04-21T02:52:26;11.30;99.90
19330;DHT22;9799;48.214;16.388;2023-04-21T02:55:47;11.20;99.90
19330;DHT22;9799;48.214;16.388;2023-04-21T02:59:09;11.30;99.90
19330;DHT22;9799;48.214;16.388;2023-04-21T03:02:32;11.40;99.90
19330;DHT22;9799;48.214;16.388;2023-04-21T03:05:55;11.40;99.90
19330;DHT22;9799;48.214;16.388;2023-04-21T03:09:17;11.40;99.90
19330;DHT22;9799;48.214;16.388;2023-04-21T03:12:38;11.30;99.90
19330;DHT22;9799;48.214;16.388;2023-04-21T03:15:59;11.00;99.90
19330;DHT22;9799;48.214;16.388;2023-04-21T03:19:22;10.90;99.90
19330;DHT22;9799;48.214;16.388;2023-04-21T03:22:43;10.90;99.90
19330;DHT22;9799;48.214;16.388;2023-04-21T03:26:05;10.90;99.90
19330;DHT22;9799;48.214;16.388;2023-04-21T03:29:27;10.80;99.90
19330;DHT22;9799;48.214;16.388;2023-04-21T03:32:48;10.80;99.90
19330;DHT22;9799;48.214;16.388;2023-04-21T03:36:11;10.70;99.90
19330;DHT22;9799;48.214;16.388;2023-04-21T03:39:32;10.70;99.90
19330;DHT22;9799;48.214;16.388;2023-04-21T03:42:53;10.70;99.90
19330;DHT22;9799;48.214;16.388;2023-04-21T03:46:18;10.70;99.90
19330;DHT22;9799;48.214;16.388;2023-04-21T03:49:39;10.90;99.90
19330;DHT22;9799;48.214;16.388;2023-04-21T03:53:02;10.90;99.90
19330;DHT22;9799;48.214;16.388;2023-04-21T03:56:23;10.80;99.90
19330;DHT22;9799;48.214;16.388;2023-04-21T03:59:44;10.90;99.90
19330;DHT22;9799;48.214;16.388;2023-04-21T04:03:06;10.90;99.90
19330;DHT22;9799;48.214;16.388;2023-04-21T04:06:27;10.80;99.90
19330;DHT22;9799;48.214;16.388;2023-04-21T04:09:49;10.70;99.90
19330;DHT22;9799;48.214;16.388;2023-04-21T04:13:10;10.70;99.90
19330;DHT22;9799;48.214;16.388;2023-04-21T04:16:33;10.70;99.90
19330;DHT22;9799;48.214;16.388;2023-04-21T04:19:55;10.70;99.90
19330;DHT22;9799;48.214;16.388;2023-04-21T04:23:16;10.60;99.90
19330;DHT22;9799;48.214;16.388;2023-04-21T04:26:39;10.50;99.90
19330;DHT22;9799;48.214;16.388;2023-04-21T04:30:00;10.50;99.90
19330;DHT22;9799;48.214;16.388;2023-04-21T04:33:21;10.40;99.90
19330;DHT22;9799;48.214;16.388;2023-04-21T04:36:43;10.50;99.90
19330;DHT22;9799;48.214;16.388;2023-04-21T04:40:05;10.70;99.90
19330;DHT22;9799;48.214;16.388;2023-04-21T04:43:30;10.60;99.90
19330;DHT22;9799;48.214;16.388;2023-04-21T04:46:52;10.60;99.90
19330;DHT22;9799;48.214;16.388;2023-04-21T04:50:13;10.80;99.90
19330;DHT22;9799;48.214;16.388;2023-04-21T04:53:34;10.80;99.90
19330;DHT22;9799;48.214;16.388;2023-04-21T04:56:56;10.90;99.90
19330;DHT22;9799;48.214;16.388;2023-04-21T05:00:19;10.80;99.90
19330;DHT22;9799;48.214;16.388;2023-04-21T05:03:41;10.70;99.90
19330;DHT22;9799;48.214;16.388;2023-04-21T05:07:02;10.80;99.90
19330;DHT22;9799;48.214;16.388;2023-04-21T05:10:25;10.80;99.90
19330;DHT22;9799;48.214;16.388;2023-04-21T05:13:46;10.90;99.90
19330;DHT22;9799;48.214;16.388;2023-04-21T05:17:08;11.10;99.90
19330;DHT22;9799;48.214;16.388;2023-04-21T05:20:29;11.10;99.90
19330;DHT22;9799;48.214;16.388;2023-04-21T05:23:51;11.10;99.90
19330;DHT22;9799;48.214;16.388;2023-04-21T05:27:12;11.10;99.90
19330;DHT22;9799;48.214;16.388;2023-04-21T05:30:33;11.10;99.90
19330;DHT22;9799;48.214;16.388;2023-04-21T05:33:56;11.10;99.90
19330;DHT22;9799;48.214;16.388;2023-04-21T05:37:17;11.30;99.90
19330;DHT22;9799;48.214;16.388;2023-04-21T05:40:38;11.50;99.90
19330;DHT22;9799;48.214;16.388;2023-04-21T05:43:59;11.60;99.90
19330;DHT22;9799;48.214;16.388;2023-04-21T05:47:20;11.50;99.90
19330;DHT22;9799;48.214;16.388;2023-04-21T05:50:43;11.50;99.90
19330;DHT22;9799;48.214;16.388;2023-04-21T05:54:04;11.50;99.90
19330;DHT22;9799;48.214;16.388;2023-04-21T05:57:26;11.60;99.90
19330;DHT22;9799;48.214;16.388;2023-04-21T06:00:47;11.50;99.90
19330;DHT22;9799;48.214;16.388;2023-04-21T06:04:09;11.60;99.90
19330;DHT22;9799;48.214;16.388;2023-04-21T06:07:31;11.70;99.90
19330;DHT22;9799;48.214;16.388;2023-04-21T06:10:56;12.00;99.90
19330;DHT22;9799;48.214;16.388;2023-04-21T06:14:17;12.20;99.90
19330;DHT22;9799;48.214;16.388;2023-04-21T06:17:38;12.50;99.90
19330;DHT22;9799;48.214;16.388;2023-04-21T06:20:59;12.50;99.90
19330;DHT22;9799;48.214;16.388;2023-04-21T06:24:22;12.60;99.90
19330;DHT22;9799;48.214;16.388;2023-04-21T06:27:44;12.70;99.90
19330;DHT22;9799;48.214;16.388;2023-04-21T06:31:07;12.80;99.90
19330;DHT22;9799;48.214;16.388;2023-04-21T06:34:28;12.90;99.90
19330;DHT22;9799;48.214;16.388;2023-04-21T06:37:52;12.90;99.90
19330;DHT22;9799;48.214;16.388;2023-04-21T06:41:14;12.80;99.90
19330;DHT22;9799;48.214;16.388;2023-04-21T06:44:36;12.70;99.90
19330;DHT22;9799;48.214;16.388;2023-04-21T06:47:57;12.70;99.90
19330;DHT22;9799;48.214;16.388;2023-04-21T06:51:19;12.70;99.90
19330;DHT22;9799;48.214;16.388;2023-04-21T06:54:40;12.90;99.90
19330;DHT22;9799;48.214;16.388;2023-04-21T06:58:02;13.10;99.90
19330;DHT22;9799;48.214;16.388;2023-04-21T07:01:23;13.20;99.90
19330;DHT22;9799;48.214;16.388;2023-04-21T07:04:45;13.00;99.90
19330;DHT22;9799;48.214;16.388;2023-04-21T07:08:06;13.00;99.90
19330;DHT22;9799;48.214;16.388;2023-04-21T07:11:27;13.20;99.90
19330;DHT22;9799;48.214;16.388;2023-04-21T07:14:50;13.30;99.90
19330;DHT22;9799;48.214;16.388;2023-04-21T07:18:11;13.50;99.90
19330;DHT22;9799;48.214;16.388;2023-04-21T07:21:32;13.70;99.90
19330;DHT22;9799;48.214;16.388;2023-04-21T07:24:55;13.70;99.90
19330;DHT22;9799;48.214;16.388;2023-04-21T07:28:16;13.80;99.90
19330;DHT22;9799;48.214;16.388;2023-04-21T07:31:39;14.00;99.90
19330;DHT22;9799;48.214;16.388;2023-04-21T07:35:00;14.20;99.90
19330;DHT22;9799;48.214;16.388;2023-04-21T07:38:22;14.40;99.90
19330;DHT22;9799;48.214;16.388;2023-04-21T07:41:43;14.50;99.90
19330;DHT22;9799;48.214;16.388;2023-04-21T07:45:05;14.70;99.90
19330;DHT22;9799;48.214;16.388;2023-04-21T07:48:28;14.80;99.90
19330;DHT22;9799;48.214;16.388;2023-04-21T07:51:49;14.80;99.90
19330;DHT22;9799;48.214;16.388;2023-04-21T07:55:10;15.00;99.90
19330;DHT22;9799;48.214;16.388;2023-04-21T07:58:32;15.10;99.90
19330;DHT22;9799;48.214;16.388;2023-04-21T08:01:53;15.40;99.90
19330;DHT22;9799;48.214;16.388;2023-04-21T08:05:16;15.50;99.90
19330;DHT22;9799;48.214;16.388;2023-04-21T08:08:37;15.20;99.90
19330;DHT22;9799;48.214;16.388;2023-04-21T08:11:58;15.10;99.90
19330;DHT22;9799;48.214;16.388;2023-04-21T08:15:21;15.00;99.90
19330;DHT22;9799;48.214;16.388;2023-04-21T08:18:42;15.30;99.90
19330;DHT22;9799;48.214;16.388;2023-04-21T08:22:04;15.50;99.90
19330;DHT22;9799;48.214;16.388;2023-04-21T08:25:26;15.80;99.90
19330;DHT22;9799;48.214;16.388;2023-04-21T08:28:47;15.90;99.90
19330;DHT22;9799;48.214;16.388;2023-04-21T08:32:09;16.20;99.90
19330;DHT22;9799;48.214;16.388;2023-04-21T08:35:30;16.40;99.90
19330;DHT22;9799;48.214;16.388;2023-04-21T08:38:53;16.50;99.90
19330;DHT22;9799;48.214;16.388;2023-04-21T08:42:15;16.40;99.90
19330;DHT22;9799;48.214;16.388;2023-04-21T08:45:38;16.50;99.90
19330;DHT22;9799;48.214;16.388;2023-04-21T08:48:59;16.60;99.90
19330;DHT22;9799;48.214;16.388;2023-04-21T08:52:21;16.70;99.90
19330;DHT22;9799;48.214;16.388;2023-04-21T08:55:44;16.80;99.90
19330;DHT22;9799;48.214;16.388;2023-04-21T08:59:06;16.70;99.90
19330;DHT22;9799;48.214;16.388;2023-04-21T09:02:27;16.90;99.90
19330;DHT22;9799;48.214;16.388;2023-04-21T09:05:56;17.00;99.90
19330;DHT22;9799;48.214;16.388;2023-04-21T09:09:17;17.10;99.90
19330;DHT22;9799;48.214;16.388;2023-04-21T09:12:40;16.90;99.90
19330;DHT22;9799;48.214;16.388;2023-04-21T09:16:04;16.80;99.90
19330;DHT22;9799;48.214;16.388;2023-04-21T09:19:26;16.60;99.90
19330;DHT22;9799;48.214;16.388;2023-04-21T09:22:47;16.60;99.90
19330;DHT22;9799;48.214;16.388;2023-04-21T09:26:10;16.60;99.90
19330;DHT22;9799;48.214;16.388;2023-04-21T09:29:32;16.70;99.90
19330;DHT22;9799;48.214;16.388;2023-04-21T09:32:55;16.70;99.90
19330;DHT22;9799;48.214;16.388;2023-04-21T09:36:18;16.70;99.90
19330;DHT22;9799;48.214;16.388;2023-04-21T09:39:44;16.70;96.90
19330;DHT22;9799;48.214;16.388;2023-04-21T09:43:05;16.70;97.50
19330;DHT22;9799;48.214;16.388;2023-04-21T09:46:29;16.70;97.30
19330;DHT22;9799;48.214;16.388;2023-04-21T09:49:52;16.70;97.00
19330;DHT22;9799;48.214;16.388;2023-04-21T09:53:15;16.60;95.80
19330;DHT22;9799;48.214;16.388;2023-04-21T09:56:39;16.80;96.30
19330;DHT22;9799;48.214;16.388;2023-04-21T10:00:03;17.20;95.70
19330;DHT22;9799;48.214;16.388;2023-04-21T10:03:26;17.00;94.70
19330;DHT22;9799;48.214;16.388;2023-04-21T10:06:48;16.90;94.40
19330;DHT22;9799;48.214;16.388;2023-04-21T10:10:18;17.40;93.20
19330;DHT22;9799;48.214;16.388;2023-04-21T10:13:41;17.90;91.00
19330;DHT22;9799;48.214;16.388;2023-04-21T10:17:04;18.10;91.40
19330;DHT22;9799;48.214;16.388;2023-04-21T10:20:28;18.30;87.40
19330;DHT22;9799;48.214;16.388;2023-04-21T10:23:50;17.80;87.10
19330;DHT22;9799;48.214;16.388;2023-04-21T10:27:30;18.10;83.30
19330;DHT22;9799;48.214;16.388;2023-04-21T10:31:25;18.50;82.10
19330;DHT22;9799;48.214;16.388;2023-04-21T10:34:49;18.10;90.10
19330;DHT22;9799;48.214;16.388;2023-04-21T10:38:34;18.40;89.20
19330;DHT22;9799;48.214;16.388;2023-04-21T10:41:56;18.50;87.30
19330;DHT22;9799;48.214;16.388;2023-04-21T10:45:17;18.70;88.90
19330;DHT22;9799;48.214;16.388;2023-04-21T10:48:39;18.90;87.40
19330;DHT22;9799;48.214;16.388;2023-04-21T10:52:05;18.60;91.00
19330;DHT22;9799;48.214;16.388;2023-04-21T10:55:29;18.90;82.50
19330;DHT22;9799;48.214;16.388;2023-04-21T10:58:51;19.00;82.60
19330;DHT22;9799;48.214;16.388;2023-04-21T11:02:16;18.90;79.50
19330;DHT22;9799;48.214;16.388;2023-04-21T11:05:39;18.90;81.00
19330;DHT22;9799;48.214;16.388;2023-04-21T11:09:01;18.90;77.90
19330;DHT22;9799;48.214;16.388;2023-04-21T11:12:26;18.40;80.90
19330;DHT22;9799;48.214;16.388;2023-04-21T11:15:55;18.60;84.90
19330;DHT22;9799;48.214;16.388;2023-04-21T11:19:17;18.80;82.20
19330;DHT22;9799;48.214;16.388;2023-04-21T11:22:39;19.20;82.60
19330;DHT22;9799;48.214;16.388;2023-04-21T11:26:00;19.10;81.30
19330;DHT22;9799;48.214;16.388;2023-04-21T11:29:23;19.30;80.50
19330;DHT22;9799;48.214;16.388;2023-04-21T11:32:45;19.60;77.30
19330;DHT22;9799;48.214;16.388;2023-04-21T11:36:07;19.70;75.20
19330;DHT22;9799;48.214;16.388;2023-04-21T11:39:28;19.50;75.00
19330;DHT22;9799;48.214;16.388;2023-04-21T11:42:50;19.00;74.80
19330;DHT22;9799;48.214;16.388;2023-04-21T11:46:16;19.30;75.20
19330;DHT22;9799;48.214;16.388;2023-04-21T11:49:43;19.30;74.10
19330;DHT22;9799;48.214;16.388;2023-04-21T11:53:05;19.20;74.50
19330;DHT22;9799;48.214;16.388;2023-04-21T11:56:27;19.20;76.30
19330;DHT22;9799;48.214;16.388;2023-04-21T11:59:48;19.50;77.00
19330;DHT22;9799;48.214;16.388;2023-04-21T12:03:12;19.50;72.40
19330;DHT22;9799;48.214;16.388;2023-04-21T12:06:36;19.10;75.40
19330;DHT22;9799;48.214;16.388;2023-04-21T12:09:58;19.40;74.10
19330;DHT22;9799;48.214;16.388;2023-04-21T12:13:21;19.30;74.30
19330;DHT22;9799;48.214;16.388;2023-04-21T12:16:43;18.80;79.20
19330;DHT22;9799;48.214;16.388;2023-04-21T12:20:07;19.00;74.80
19330;DHT22;9799;48.214;16.388;2023-04-21T12:23:28;19.20;75.30
19330;DHT22;9799;48.214;16.388;2023-04-21T12:26:50;19.50;74.10
19330;DHT22;9799;48.214;16.388;2023-04-21T12:30:12;19.60;72.60
19330;DHT22;9799;48.214;16.388;2023-04-21T12:33:33;19.70;73.00
19330;DHT22;9799;48.214;16.388;2023-04-21T12:36:56;19.40;72.90
19330;DHT22;9799;48.214;16.388;2023-04-21T12:40:17;19.50;73.10
19330;DHT22;9799;48.214;16.388;2023-04-21T12:43:38;19.50;71.10
19330;DHT22;9799;48.214;16.388;2023-04-21T12:46:59;19.90;72.40
19330;DHT22;9799;48.214;16.388;2023-04-21T12:50:21;19.80;71.20
19330;DHT22;9799;48.214;16.388;2023-04-21T12:53:43;19.30;71.50
19330;DHT22;9799;48.214;16.388;2023-04-21T12:57:05;19.30;73.60
19330;DHT22;9799;48.214;16.388;2023-04-21T13:00:26;19.40;71.50
19330;DHT22;9799;48.214;16.388;2023-04-21T13:03:48;19.30;73.30
19330;DHT22;9799;48.214;16.388;2023-04-21T13:07:10;19.30;74.10
19330;DHT22;9799;48.214;16.388;2023-04-21T13:10:33;19.00;71.20
19330;DHT22;9799;48.214;16.388;2023-04-21T13:13:54;19.30;69.30
19330;DHT22;9799;48.214;16.388;2023-04-21T13:17:15;19.70;68.60
19330;DHT22;9799;48.214;16.388;2023-04-21T13:20:37;19.50;69.50
19330;DHT22;9799;48.214;16.388;2023-04-21T13:24:06;19.50;69.00
19330;DHT22;9799;48.214;16.388;2023-04-21T13:27:29;19.60;67.70
19330;DHT22;9799;48.214;16.388;2023-04-21T13:30:52;19.60;67.80
19330;DHT22;9799;48.214;16.388;2023-04-21T13:34:14;19.60;66.90
19330;DHT22;9799;48.214;16.388;2023-04-21T13:37:36;19.60;66.50
19330;DHT22;9799;48.214;16.388;2023-04-21T13:40:57;19.60;67.10
19330;DHT22;9799;48.214;16.388;2023-04-21T13:44:20;19.70;67.10
19330;DHT22;9799;48.214;16.388;2023-04-21T13:47:42;19.90;75.30
19330;DHT22;9799;48.214;16.388;2023-04-21T13:51:03;19.50;71.30
19330;DHT22;9799;48.214;16.388;2023-04-21T13:54:25;19.70;69.40
19330;DHT22;9799;48.214;16.388;2023-04-21T13:57:46;19.70;71.60
19330;DHT22;9799;48.214;16.388;2023-04-21T14:01:09;19.90;69.00
19330;DHT22;9799;48.214;16.388;2023-04-21T14:04:30;19.80;69.70
19330;DHT22;9799;48.214;16.388;2023-04-21T14:07:52;19.70;69.80
19330;DHT22;9799;48.214;16.388;2023-04-21T14:11:13;19.80;68.60
19330;DHT22;9799;48.214;16.388;2023-04-21T14:14:34;19.90;69.40
19330;DHT22;9799;48.214;16.388;2023-04-21T14:17:57;20.00;68.00
19330;DHT22;9799;48.214;16.388;2023-04-21T14:21:19;19.80;68.60
19330;DHT22;9799;48.214;16.388;2023-04-21T14:24:40;19.80;68.70
19330;DHT22;9799;48.214;16.388;2023-04-21T14:28:01;19.60;67.90
19330;DHT22;9799;48.214;16.388;2023-04-21T14:31:26;19.70;68.50
19330;DHT22;9799;48.214;16.388;2023-04-21T14:34:48;19.90;69.10
19330;DHT22;9799;48.214;16.388;2023-04-21T14:38:11;19.90;70.30
19330;DHT22;9799;48.214;16.388;2023-04-21T14:41:33;19.70;69.20
19330;DHT22;9799;48.214;16.388;2023-04-21T14:44:54;19.90;69.00
19330;DHT22;9799;48.214;16.388;2023-04-21T14:48:16;19.90;70.20
19330;DHT22;9799;48.214;16.388;2023-04-21T14:51:38;19.70;72.90
19330;DHT22;9799;48.214;16.388;2023-04-21T14:55:01;19.70;69.80
19330;DHT22;9799;48.214;16.388;2023-04-21T14:58:22;19.60;70.80
19330;DHT22;9799;48.214;16.388;2023-04-21T15:01:44;19.70;70.00
19330;DHT22;9799;48.214;16.388;2023-04-21T15:05:06;19.60;70.00
19330;DHT22;9799;48.214;16.388;2023-04-21T15:08:29;19.70;70.30
19330;DHT22;9799;48.214;16.388;2023-04-21T15:11:50;19.80;70.60
19330;DHT22;9799;48.214;16.388;2023-04-21T15:15:13;19.70;71.70
19330;DHT22;9799;48.214;16.388;2023-04-21T15:18:34;19.70;71.20
19330;DHT22;9799;48.214;16.388;2023-04-21T15:21:56;19.60;73.00
19330;DHT22;9799;48.214;16.388;2023-04-21T15:25:18;19.70;73.50
19330;DHT22;9799;48.214;16.388;2023-04-21T15:28:40;19.50;70.70
19330;DHT22;9799;48.214;16.388;2023-04-21T15:32:01;19.10;71.80
19330;DHT22;9799;48.214;16.388;2023-04-21T15:35:22;19.20;71.80
19330;DHT22;9799;48.214;16.388;2023-04-21T15:38:44;19.40;70.40
19330;DHT22;9799;48.214;16.388;2023-04-21T15:42:06;19.50;72.00
19330;DHT22;9799;48.214;16.388;2023-04-21T15:45:28;19.30;73.10
19330;DHT22;9799;48.214;16.388;2023-04-21T15:48:49;19.40;73.30
19330;DHT22;9799;48.214;16.388;2023-04-21T15:52:10;19.40;71.70
19330;DHT22;9799;48.214;16.388;2023-04-21T15:55:32;19.50;68.90
19330;DHT22;9799;48.214;16.388;2023-04-21T15:58:55;19.30;69.40
19330;DHT22;9799;48.214;16.388;2023-04-21T16:02:16;19.30;69.70
19330;DHT22;9799;48.214;16.388;2023-04-21T16:05:37;19.30;70.60
19330;DHT22;9799;48.214;16.388;2023-04-21T16:08:59;19.20;69.20
19330;DHT22;9799;48.214;16.388;2023-04-21T16:12:20;19.30;69.30
19330;DHT22;9799;48.214;16.388;2023-04-21T16:15:42;19.30;69.40
19330;DHT22;9799;48.214;16.388;2023-04-21T16:19:04;19.20;69.90
19330;DHT22;9799;48.214;16.388;2023-04-21T16:22:25;19.00;70.60
19330;DHT22;9799;48.214;16.388;2023-04-21T16:25:47;18.80;71.00
19330;DHT22;9799;48.214;16.388;2023-04-21T16:29:08;18.70;71.10
19330;DHT22;9799;48.214;16.388;2023-04-21T16:32:31;18.70;71.70
19330;DHT22;9799;48.214;16.388;2023-04-21T16:35:54;18.70;72.50
19330;DHT22;9799;48.214;16.388;2023-04-21T16:39:15;18.60;71.20
19330;DHT22;9799;48.214;16.388;2023-04-21T16:42:37;18.60;72.30
19330;DHT22;9799;48.214;16.388;2023-04-21T16:45:58;18.30;73.10
19330;DHT22;9799;48.214;16.388;2023-04-21T16:49:21;18.40;73.90
19330;DHT22;9799;48.214;16.388;2023-04-21T16:52:42;18.30;77.50
19330;DHT22;9799;48.214;16.388;2023-04-21T16:56:04;18.20;73.90
19330;DHT22;9799;48.214;16.388;2023-04-21T16:59:25;18.30;74.00
19330;DHT22;9799;48.214;16.388;2023-04-21T17:02:46;18.30;73.70
19330;DHT22;9799;48.214;16.388;2023-04-21T17:06:09;18.30;74.00
19330;DHT22;9799;48.214;16.388;2023-04-21T17:09:31;18.20;73.70
19330;DHT22;9799;48.214;16.388;2023-04-21T17:12:52;18.20;73.80
19330;DHT22;9799;48.214;16.388;2023-04-21T17:16:14;18.10;73.90
19330;DHT22;9799;48.214;16.388;2023-04-21T17:19:35;18.10;73.60
19330;DHT22;9799;48.214;16.388;2023-04-21T17:22:58;18.00;73.30
19330;DHT22;9799;48.214;16.388;2023-04-21T17:26:19;18.00;73.80
19330;DHT22;9799;48.214;16.388;2023-04-21T17:29:41;17.90;73.80
19330;DHT22;9799;48.214;16.388;2023-04-21T17:33:02;17.90;74.60
19330;DHT22;9799;48.214;16.388;2023-04-21T17:36:23;17.90;74.90
19330;DHT22;9799;48.214;16.388;2023-04-21T17:39:47;17.80;75.90
19330;DHT22;9799;48.214;16.388;2023-04-21T17:43:09;17.70;75.70
19330;DHT22;9799;48.214;16.388;2023-04-21T17:46:30;17.70;75.70
19330;DHT22;9799;48.214;16.388;2023-04-21T17:49:51;17.60;76.00
19330;DHT22;9799;48.214;16.388;2023-04-21T17:53:12;17.60;76.00
19330;DHT22;9799;48.214;16.388;2023-04-21T17:56:35;17.60;76.60
19330;DHT22;9799;48.214;16.388;2023-04-21T17:59:56;17.50;76.80
19330;DHT22;9799;48.214;16.388;2023-04-21T18:03:18;17.50;77.20
19330;DHT22;9799;48.214;16.388;2023-04-21T18:06:39;17.40;77.30
19330;DHT22;9799;48.214;16.388;2023-04-21T18:10:01;17.40;77.80
19330;DHT22;9799;48.214;16.388;2023-04-21T18:13:23;17.30;78.20
19330;DHT22;9799;48.214;16.388;2023-04-21T18:16:45;17.30;79.10
19330;DHT22;9799;48.214;16.388;2023-04-21T18:20:07;17.20;78.90
19330;DHT22;9799;48.214;16.388;2023-04-21T18:23:31;17.20;79.60
19330;DHT22;9799;48.214;16.388;2023-04-21T18:26:52;17.20;79.80
19330;DHT22;9799;48.214;16.388;2023-04-21T18:30:15;17.20;80.10
19330;DHT22;9799;48.214;16.388;2023-04-21T18:33:37;17.20;80.30
19330;DHT22;9799;48.214;16.388;2023-04-21T18:36:59;17.10;81.70
19330;DHT22;9799;48.214;16.388;2023-04-21T18:40:20;17.10;81.10
19330;DHT22;9799;48.214;16.388;2023-04-21T18:43:42;17.10;82.50
19330;DHT22;9799;48.214;16.388;2023-04-21T18:47:04;17.10;82.20
19330;DHT22;9799;48.214;16.388;2023-04-21T18:50:26;17.10;82.60
19330;DHT22;9799;48.214;16.388;2023-04-21T18:53:47;17.00;83.00
19330;DHT22;9799;48.214;16.388;2023-04-21T18:57:09;17.00;82.70
19330;DHT22;9799;48.214;16.388;2023-04-21T19:00:30;17.00;83.00
19330;DHT22;9799;48.214;16.388;2023-04-21T19:03:57;16.90;83.80
19330;DHT22;9799;48.214;16.388;2023-04-21T19:07:19;16.90;84.30
19330;DHT22;9799;48.214;16.388;2023-04-21T19:10:41;16.80;84.30
19330;DHT22;9799;48.214;16.388;2023-04-21T19:14:02;16.70;86.00
19330;DHT22;9799;48.214;16.388;2023-04-21T19:17:25;16.70;85.80
19330;DHT22;9799;48.214;16.388;2023-04-21T19:20:47;16.70;86.50
19330;DHT22;9799;48.214;16.388;2023-04-21T19:24:09;16.70;87.20
19330;DHT22;9799;48.214;16.388;2023-04-21T19:27:30;16.60;87.90
19330;DHT22;9799;48.214;16.388;2023-04-21T19:30:52;16.50;88.70
19330;DHT22;9799;48.214;16.388;2023-04-21T19:34:13;16.40;88.80
19330;DHT22;9799;48.214;16.388;2023-04-21T19:37:37;16.40;89.40
19330;DHT22;9799;48.214;16.388;2023-04-21T19:40:59;16.30;89.40
19330;DHT22;9799;48.214;16.388;2023-04-21T19:44:20;16.10;90.00
19330;DHT22;9799;48.214;16.388;2023-04-21T19:47:41;16.00;90.30
19330;DHT22;9799;48.214;16.388;2023-04-21T19:51:04;16.00;90.80
19330;DHT22;9799;48.214;16.388;2023-04-21T19:54:27;16.00;91.10
19330;DHT22;9799;48.214;16.388;2023-04-21T19:57:50;16.10;91.40
19330;DHT22;9799;48.214;16.388;2023-04-21T20:01:11;16.10;91.40
19330;DHT22;9799;48.214;16.388;2023-04-21T20:04:33;16.00;91.40
19330;DHT22;9799;48.214;16.388;2023-04-21T20:07:56;16.00;92.00
19330;DHT22;9799;48.214;16.388;2023-04-21T20:11:19;16.00;92.00
19330;DHT22;9799;48.214;16.388;2023-04-21T20:14:41;15.90;92.50
19330;DHT22;9799;48.214;16.388;2023-04-21T20:18:04;15.90;92.70
19330;DHT22;9799;48.214;16.388;2023-04-21T20:21:26;15.90;93.40
19330;DHT22;9799;48.214;16.388;2023-04-21T20:24:48;15.90;93.60
19330;DHT22;9799;48.214;16.388;2023-04-21T20:28:12;15.70;93.40
19330;DHT22;9799;48.214;16.388;2023-04-21T20:31:33;15.70;94.00
19330;DHT22;9799;48.214;16.388;2023-04-21T20:34:57;15.70;94.20
19330;DHT22;9799;48.214;16.388;2023-04-21T20:38:20;15.70;94.20
19330;DHT22;9799;48.214;16.388;2023-04-21T20:41:42;15.70;93.90
19330;DHT22;9799;48.214;16.388;2023-04-21T20:45:07;15.70;94.50
19330;DHT22;9799;48.214;16.388;2023-04-21T20:48:28;15.70;94.80
19330;DHT22;9799;48.214;16.388;2023-04-21T20:51:55;15.60;95.10
19330;DHT22;9799;48.214;16.388;2023-04-21T20:55:16;15.50;95.60
19330;DHT22;9799;48.214;16.388;2023-04-21T20:58:38;15.50;95.90
19330;DHT22;9799;48.214;16.388;2023-04-21T21:02:00;15.40;96.40
19330;DHT22;9799;48.214;16.388;2023-04-21T21:05:22;15.40;96.60
19330;DHT22;9799;48.214;16.388;2023-04-21T21:08:43;15.40;97.10
19330;DHT22;9799;48.214;16.388;2023-04-21T21:12:04;15.40;97.80
19330;DHT22;9799;48.214;16.388;2023-04-21T21:15:25;15.30;97.90